sensor_id;sensor_type;location;lat;lon;timestamp;P1;durP1;ratioP1;P2;durP2;ratioP2
8978;SDS011;4524;51.364;5.448;2022-07-04T00:00:14;3.27;;;2.20;;
8978;SDS011;4524;51.364;5.448;2022-07-04T00:02:43;5.33;;;2.40;;
8978;SDS011;4524;51.364;5.448;2022-07-04T00:05:14;2.10;;;1.90;;
8978;SDS011;4524;51.364;5.448;2022-07-04T00:07:44;2.13;;;1.90;;
8978;SDS011;4524;51.364;5.448;2022-07-04T00:10:20;4.00;;;2.10;;
8978;SDS011;4524;51.364;5.448;2022-07-04T00:12:48;4.23;;;2.20;;
8978;SDS011;4524;51.364;5.448;2022-07-04T00:15:17;3.27;;;2.40;;
8978;SDS011;4524;51.364;5.448;2022-07-04T00:17:45;2.63;;;1.70;;
8978;SDS011;4524;51.364;5.448;2022-07-04T00:20:14;2.37;;;1.90;;
8978;SDS011;4524;51.364;5.448;2022-07-04T00:22:42;3.97;;;2.23;;
8978;SDS011;4524;51.364;5.448;2022-07-04T00:25:11;2.47;;;1.83;;
8978;SDS011;4524;51.364;5.448;2022-07-04T00:27:39;2.97;;;1.67;;
8978;SDS011;4524;51.364;5.448;2022-07-04T00:30:07;3.13;;;2.47;;
8978;SDS011;4524;51.364;5.448;2022-07-04T00:32:36;3.07;;;2.17;;
8978;SDS011;4524;51.364;5.448;2022-07-04T00:35:04;2.67;;;2.43;;
8978;SDS011;4524;51.364;5.448;2022-07-04T00:37:33;3.40;;;2.47;;
8978;SDS011;4524;51.364;5.448;2022-07-04T00:40:01;3.53;;;2.40;;
8978;SDS011;4524;51.364;5.448;2022-07-04T00:42:30;4.50;;;2.20;;
8978;SDS011;4524;51.364;5.448;2022-07-04T00:44:58;5.03;;;2.60;;
8978;SDS011;4524;51.364;5.448;2022-07-04T00:47:25;2.47;;;2.20;;
8978;SDS011;4524;51.364;5.448;2022-07-04T00:49:53;3.67;;;2.50;;
8978;SDS011;4524;51.364;5.448;2022-07-04T00:52:21;4.20;;;2.47;;
8978;SDS011;4524;51.364;5.448;2022-07-04T00:54:51;2.83;;;2.30;;
8978;SDS011;4524;51.364;5.448;2022-07-04T00:57:19;3.57;;;2.40;;
8978;SDS011;4524;51.364;5.448;2022-07-04T00:59:47;4.07;;;2.50;;
8978;SDS011;4524;51.364;5.448;2022-07-04T01:02:15;2.53;;;2.27;;
8978;SDS011;4524;51.364;5.448;2022-07-04T01:04:43;3.03;;;2.17;;
8978;SDS011;4524;51.364;5.448;2022-07-04T01:07:11;4.43;;;2.37;;
8978;SDS011;4524;51.364;5.448;2022-07-04T01:09:40;3.90;;;2.20;;
8978;SDS011;4524;51.364;5.448;2022-07-04T01:12:09;3.30;;;2.33;;
8978;SDS011;4524;51.364;5.448;2022-07-04T01:14:38;4.50;;;2.37;;
8978;SDS011;4524;51.364;5.448;2022-07-04T01:17:06;3.63;;;2.03;;
8978;SDS011;4524;51.364;5.448;2022-07-04T01:19:34;2.83;;;2.00;;
8978;SDS011;4524;51.364;5.448;2022-07-04T01:22:06;4.33;;;2.13;;
8978;SDS011;4524;51.364;5.448;2022-07-04T01:24:34;2.50;;;2.07;;
8978;SDS011;4524;51.364;5.448;2022-07-04T01:27:02;3.47;;;2.30;;
8978;SDS011;4524;51.364;5.448;2022-07-04T01:29:30;4.47;;;2.40;;
8978;SDS011;4524;51.364;5.448;2022-07-04T01:32:02;3.53;;;2.37;;
8978;SDS011;4524;51.364;5.448;2022-07-04T01:34:31;3.20;;;2.20;;
8978;SDS011;4524;51.364;5.448;2022-07-04T01:36:59;2.80;;;2.50;;
8978;SDS011;4524;51.364;5.448;2022-07-04T01:39:29;4.97;;;2.10;;
8978;SDS011;4524;51.364;5.448;2022-07-04T01:41:57;3.10;;;2.20;;
8978;SDS011;4524;51.364;5.448;2022-07-04T01:44:25;4.33;;;2.20;;
8978;SDS011;4524;51.364;5.448;2022-07-04T01:46:52;2.10;;;1.90;;
8978;SDS011;4524;51.364;5.448;2022-07-04T01:49:21;4.13;;;2.53;;
8978;SDS011;4524;51.364;5.448;2022-07-04T01:51:49;2.40;;;2.20;;
8978;SDS011;4524;51.364;5.448;2022-07-04T01:54:18;3.77;;;2.40;;
8978;SDS011;4524;51.364;5.448;2022-07-04T01:56:48;2.93;;;2.57;;
8978;SDS011;4524;51.364;5.448;2022-07-04T01:59:16;3.10;;;2.30;;
8978;SDS011;4524;51.364;5.448;2022-07-04T02:01:44;4.83;;;2.50;;
8978;SDS011;4524;51.364;5.448;2022-07-04T02:04:11;3.13;;;2.60;;
8978;SDS011;4524;51.364;5.448;2022-07-04T02:06:39;3.17;;;2.23;;
8978;SDS011;4524;51.364;5.448;2022-07-04T02:09:06;3.13;;;2.33;;
8978;SDS011;4524;51.364;5.448;2022-07-04T02:11:45;2.97;;;2.60;;
8978;SDS011;4524;51.364;5.448;2022-07-04T02:14:32;3.43;;;2.30;;
8978;SDS011;4524;51.364;5.448;2022-07-04T02:17:00;3.13;;;2.47;;
8978;SDS011;4524;51.364;5.448;2022-07-04T02:19:28;4.27;;;2.27;;
8978;SDS011;4524;51.364;5.448;2022-07-04T02:21:57;2.57;;;2.37;;
8978;SDS011;4524;51.364;5.448;2022-07-04T02:24:25;4.00;;;2.70;;
8978;SDS011;4524;51.364;5.448;2022-07-04T02:26:53;3.63;;;2.30;;
8978;SDS011;4524;51.364;5.448;2022-07-04T02:29:21;2.80;;;2.33;;
8978;SDS011;4524;51.364;5.448;2022-07-04T02:31:50;3.43;;;2.60;;
8978;SDS011;4524;51.364;5.448;2022-07-04T02:34:18;2.90;;;2.03;;
8978;SDS011;4524;51.364;5.448;2022-07-04T02:36:46;3.93;;;2.30;;
8978;SDS011;4524;51.364;5.448;2022-07-04T02:39:14;3.17;;;2.00;;
8978;SDS011;4524;51.364;5.448;2022-07-04T02:41:42;3.47;;;2.50;;
8978;SDS011;4524;51.364;5.448;2022-07-04T02:44:10;2.40;;;2.23;;
8978;SDS011;4524;51.364;5.448;2022-07-04T02:46:38;2.87;;;2.27;;
8978;SDS011;4524;51.364;5.448;2022-07-04T02:49:07;3.47;;;2.17;;
8978;SDS011;4524;51.364;5.448;2022-07-04T02:51:35;5.40;;;2.40;;
8978;SDS011;4524;51.364;5.448;2022-07-04T02:54:03;4.07;;;2.90;;
8978;SDS011;4524;51.364;5.448;2022-07-04T02:56:31;5.40;;;3.30;;
8978;SDS011;4524;51.364;5.448;2022-07-04T02:58:59;4.43;;;3.27;;
8978;SDS011;4524;51.364;5.448;2022-07-04T03:01:27;6.87;;;3.60;;
8978;SDS011;4524;51.364;5.448;2022-07-04T03:03:55;5.07;;;3.50;;
8978;SDS011;4524;51.364;5.448;2022-07-04T03:06:24;5.53;;;4.03;;
8978;SDS011;4524;51.364;5.448;2022-07-04T03:08:52;5.23;;;3.57;;
8978;SDS011;4524;51.364;5.448;2022-07-04T03:11:20;4.40;;;3.40;;
8978;SDS011;4524;51.364;5.448;2022-07-04T03:13:48;4.17;;;3.40;;
8978;SDS011;4524;51.364;5.448;2022-07-04T03:16:16;4.17;;;3.63;;
8978;SDS011;4524;51.364;5.448;2022-07-04T03:18:44;4.10;;;3.70;;
8978;SDS011;4524;51.364;5.448;2022-07-04T03:21:12;7.90;;;4.00;;
8978;SDS011;4524;51.364;5.448;2022-07-04T03:23:41;3.90;;;3.57;;
8978;SDS011;4524;51.364;5.448;2022-07-04T03:26:23;5.27;;;3.90;;
8978;SDS011;4524;51.364;5.448;2022-07-04T03:28:52;5.10;;;3.97;;
8978;SDS011;4524;51.364;5.448;2022-07-04T03:31:20;4.60;;;4.20;;
8978;SDS011;4524;51.364;5.448;2022-07-04T03:33:48;4.47;;;3.90;;
8978;SDS011;4524;51.364;5.448;2022-07-04T03:36:16;6.50;;;3.97;;
8978;SDS011;4524;51.364;5.448;2022-07-04T03:38:46;4.17;;;3.80;;
8978;SDS011;4524;51.364;5.448;2022-07-04T03:41:14;5.33;;;3.57;;
8978;SDS011;4524;51.364;5.448;2022-07-04T03:43:42;8.13;;;3.73;;
8978;SDS011;4524;51.364;5.448;2022-07-04T03:46:10;5.07;;;3.77;;
8978;SDS011;4524;51.364;5.448;2022-07-04T03:48:38;5.83;;;3.40;;
8978;SDS011;4524;51.364;5.448;2022-07-04T03:51:06;5.70;;;3.83;;
8978;SDS011;4524;51.364;5.448;2022-07-04T03:53:34;5.87;;;4.00;;
8978;SDS011;4524;51.364;5.448;2022-07-04T03:56:04;4.20;;;3.80;;
8978;SDS011;4524;51.364;5.448;2022-07-04T03:58:32;5.43;;;3.80;;
8978;SDS011;4524;51.364;5.448;2022-07-04T04:01:00;4.57;;;3.60;;
8978;SDS011;4524;51.364;5.448;2022-07-04T04:03:28;5.33;;;4.00;;
8978;SDS011;4524;51.364;5.448;2022-07-04T04:06:14;4.03;;;3.63;;
8978;SDS011;4524;51.364;5.448;2022-07-04T04:08:41;5.03;;;4.00;;
8978;SDS011;4524;51.364;5.448;2022-07-04T04:11:11;7.17;;;4.10;;
8978;SDS011;4524;51.364;5.448;2022-07-04T04:13:39;4.03;;;3.63;;
8978;SDS011;4524;51.364;5.448;2022-07-04T04:16:07;5.70;;;4.00;;
8978;SDS011;4524;51.364;5.448;2022-07-04T04:18:35;5.03;;;4.20;;
8978;SDS011;4524;51.364;5.448;2022-07-04T04:21:03;4.73;;;4.10;;
8978;SDS011;4524;51.364;5.448;2022-07-04T04:23:31;6.33;;;3.60;;
8978;SDS011;4524;51.364;5.448;2022-07-04T04:25:59;5.07;;;4.10;;
8978;SDS011;4524;51.364;5.448;2022-07-04T04:28:28;4.10;;;3.70;;
8978;SDS011;4524;51.364;5.448;2022-07-04T04:30:56;5.83;;;4.10;;
8978;SDS011;4524;51.364;5.448;2022-07-04T04:33:24;5.80;;;4.00;;
8978;SDS011;4524;51.364;5.448;2022-07-04T04:35:52;6.00;;;4.00;;
8978;SDS011;4524;51.364;5.448;2022-07-04T04:38:20;5.97;;;3.93;;
8978;SDS011;4524;51.364;5.448;2022-07-04T04:40:48;7.13;;;4.10;;
8978;SDS011;4524;51.364;5.448;2022-07-04T04:43:15;5.20;;;4.40;;
8978;SDS011;4524;51.364;5.448;2022-07-04T04:45:45;5.73;;;4.10;;
8978;SDS011;4524;51.364;5.448;2022-07-04T04:48:13;5.33;;;4.10;;
8978;SDS011;4524;51.364;5.448;2022-07-04T04:50:41;4.77;;;4.27;;
8978;SDS011;4524;51.364;5.448;2022-07-04T04:53:09;5.00;;;4.20;;
8978;SDS011;4524;51.364;5.448;2022-07-04T04:55:37;5.23;;;4.13;;
8978;SDS011;4524;51.364;5.448;2022-07-04T04:58:05;8.80;;;4.43;;
8978;SDS011;4524;51.364;5.448;2022-07-04T05:00:33;4.50;;;4.10;;
8978;SDS011;4524;51.364;5.448;2022-07-04T05:03:02;6.70;;;4.40;;
8978;SDS011;4524;51.364;5.448;2022-07-04T05:05:30;6.80;;;4.20;;
8978;SDS011;4524;51.364;5.448;2022-07-04T05:07:58;7.80;;;4.37;;
8978;SDS011;4524;51.364;5.448;2022-07-04T05:10:26;6.27;;;4.47;;
8978;SDS011;4524;51.364;5.448;2022-07-04T05:12:54;5.77;;;4.27;;
8978;SDS011;4524;51.364;5.448;2022-07-04T05:15:22;6.87;;;4.13;;
8978;SDS011;4524;51.364;5.448;2022-07-04T05:17:50;5.27;;;3.70;;
8978;SDS011;4524;51.364;5.448;2022-07-04T05:20:19;5.80;;;3.83;;
8978;SDS011;4524;51.364;5.448;2022-07-04T05:22:47;7.20;;;3.80;;
8978;SDS011;4524;51.364;5.448;2022-07-04T05:25:15;4.93;;;3.70;;
8978;SDS011;4524;51.364;5.448;2022-07-04T05:27:43;3.83;;;3.50;;
8978;SDS011;4524;51.364;5.448;2022-07-04T05:30:11;6.00;;;3.80;;
8978;SDS011;4524;51.364;5.448;2022-07-04T05:32:39;5.77;;;3.63;;
8978;SDS011;4524;51.364;5.448;2022-07-04T05:35:08;4.87;;;3.87;;
8978;SDS011;4524;51.364;5.448;2022-07-04T05:37:37;5.50;;;3.60;;
8978;SDS011;4524;51.364;5.448;2022-07-04T05:40:05;7.40;;;3.77;;
8978;SDS011;4524;51.364;5.448;2022-07-04T05:42:34;6.03;;;3.90;;
8978;SDS011;4524;51.364;5.448;2022-07-04T05:45:02;5.37;;;4.17;;
8978;SDS011;4524;51.364;5.448;2022-07-04T05:47:31;4.73;;;3.77;;
8978;SDS011;4524;51.364;5.448;2022-07-04T05:49:59;5.83;;;4.33;;
8978;SDS011;4524;51.364;5.448;2022-07-04T05:52:27;5.77;;;3.60;;
8978;SDS011;4524;51.364;5.448;2022-07-04T05:54:56;4.57;;;3.47;;
8978;SDS011;4524;51.364;5.448;2022-07-04T05:57:24;5.43;;;3.33;;
8978;SDS011;4524;51.364;5.448;2022-07-04T05:59:52;6.67;;;3.67;;
8978;SDS011;4524;51.364;5.448;2022-07-04T06:02:20;7.67;;;3.67;;
8978;SDS011;4524;51.364;5.448;2022-07-04T06:04:48;6.27;;;3.43;;
8978;SDS011;4524;51.364;5.448;2022-07-04T06:07:16;8.50;;;3.40;;
8978;SDS011;4524;51.364;5.448;2022-07-04T06:09:44;7.20;;;3.70;;
8978;SDS011;4524;51.364;5.448;2022-07-04T06:12:13;6.87;;;3.70;;
8978;SDS011;4524;51.364;5.448;2022-07-04T06:14:41;6.43;;;3.67;;
8978;SDS011;4524;51.364;5.448;2022-07-04T06:17:10;7.90;;;3.67;;
8978;SDS011;4524;51.364;5.448;2022-07-04T06:19:38;7.20;;;3.80;;
8978;SDS011;4524;51.364;5.448;2022-07-04T06:22:06;6.17;;;3.80;;
8978;SDS011;4524;51.364;5.448;2022-07-04T06:24:33;7.10;;;3.33;;
8978;SDS011;4524;51.364;5.448;2022-07-04T06:27:02;5.73;;;3.90;;
8978;SDS011;4524;51.364;5.448;2022-07-04T06:29:31;7.30;;;3.60;;
8978;SDS011;4524;51.364;5.448;2022-07-04T06:31:59;6.93;;;3.43;;
8978;SDS011;4524;51.364;5.448;2022-07-04T06:34:27;5.47;;;3.67;;
8978;SDS011;4524;51.364;5.448;2022-07-04T06:37:13;7.37;;;3.90;;
8978;SDS011;4524;51.364;5.448;2022-07-04T06:39:40;7.07;;;3.27;;
8978;SDS011;4524;51.364;5.448;2022-07-04T06:42:08;5.00;;;3.20;;
8978;SDS011;4524;51.364;5.448;2022-07-04T06:44:38;6.33;;;3.87;;
8978;SDS011;4524;51.364;5.448;2022-07-04T06:47:06;7.27;;;3.50;;
8978;SDS011;4524;51.364;5.448;2022-07-04T06:49:34;6.53;;;3.47;;
8978;SDS011;4524;51.364;5.448;2022-07-04T06:52:02;8.13;;;3.73;;
8978;SDS011;4524;51.364;5.448;2022-07-04T06:54:30;5.80;;;3.30;;
8978;SDS011;4524;51.364;5.448;2022-07-04T06:56:58;7.87;;;3.23;;
8978;SDS011;4524;51.364;5.448;2022-07-04T06:59:47;9.07;;;3.07;;
8978;SDS011;4524;51.364;5.448;2022-07-04T07:02:15;5.60;;;3.07;;
8978;SDS011;4524;51.364;5.448;2022-07-04T07:04:43;4.30;;;2.60;;
8978;SDS011;4524;51.364;5.448;2022-07-04T07:07:11;6.03;;;2.87;;
8978;SDS011;4524;51.364;5.448;2022-07-04T07:09:39;6.67;;;3.17;;
8978;SDS011;4524;51.364;5.448;2022-07-04T07:12:07;4.20;;;2.70;;
8978;SDS011;4524;51.364;5.448;2022-07-04T07:14:35;5.50;;;2.80;;
8978;SDS011;4524;51.364;5.448;2022-07-04T07:17:05;6.17;;;2.73;;
8978;SDS011;4524;51.364;5.448;2022-07-04T07:19:33;6.60;;;2.57;;
8978;SDS011;4524;51.364;5.448;2022-07-04T07:22:01;6.13;;;2.57;;
8978;SDS011;4524;51.364;5.448;2022-07-04T07:24:29;6.20;;;2.60;;
8978;SDS011;4524;51.364;5.448;2022-07-04T07:26:57;5.57;;;2.30;;
8978;SDS011;4524;51.364;5.448;2022-07-04T07:29:25;8.27;;;2.63;;
8978;SDS011;4524;51.364;5.448;2022-07-04T07:31:53;5.53;;;2.30;;
8978;SDS011;4524;51.364;5.448;2022-07-04T07:34:22;5.60;;;2.80;;
8978;SDS011;4524;51.364;5.448;2022-07-04T07:36:50;4.80;;;2.40;;
8978;SDS011;4524;51.364;5.448;2022-07-04T07:39:23;4.73;;;2.60;;
8978;SDS011;4524;51.364;5.448;2022-07-04T07:41:50;4.77;;;2.50;;
8978;SDS011;4524;51.364;5.448;2022-07-04T07:44:24;6.37;;;2.70;;
8978;SDS011;4524;51.364;5.448;2022-07-04T07:46:52;4.50;;;2.30;;
8978;SDS011;4524;51.364;5.448;2022-07-04T07:49:20;4.47;;;2.20;;
8978;SDS011;4524;51.364;5.448;2022-07-04T07:51:49;3.30;;;2.20;;
8978;SDS011;4524;51.364;5.448;2022-07-04T07:54:17;5.63;;;2.10;;
8978;SDS011;4524;51.364;5.448;2022-07-04T07:57:03;4.33;;;1.70;;
8978;SDS011;4524;51.364;5.448;2022-07-04T07:59:31;5.23;;;1.80;;
8978;SDS011;4524;51.364;5.448;2022-07-04T08:01:59;4.53;;;1.90;;
8978;SDS011;4524;51.364;5.448;2022-07-04T08:04:27;3.53;;;1.80;;
8978;SDS011;4524;51.364;5.448;2022-07-04T08:07:06;4.03;;;1.87;;
8978;SDS011;4524;51.364;5.448;2022-07-04T08:09:48;5.63;;;1.87;;
8978;SDS011;4524;51.364;5.448;2022-07-04T08:12:16;4.87;;;2.00;;
8978;SDS011;4524;51.364;5.448;2022-07-04T08:14:44;5.23;;;2.10;;
8978;SDS011;4524;51.364;5.448;2022-07-04T08:17:12;7.17;;;2.03;;
8978;SDS011;4524;51.364;5.448;2022-07-04T08:19:40;4.30;;;2.10;;
8978;SDS011;4524;51.364;5.448;2022-07-04T08:22:10;5.20;;;1.90;;
8978;SDS011;4524;51.364;5.448;2022-07-04T08:24:41;4.10;;;2.10;;
8978;SDS011;4524;51.364;5.448;2022-07-04T08:27:10;3.73;;;1.77;;
8978;SDS011;4524;51.364;5.448;2022-07-04T08:29:38;3.30;;;1.90;;
8978;SDS011;4524;51.364;5.448;2022-07-04T08:32:06;6.10;;;1.87;;
8978;SDS011;4524;51.364;5.448;2022-07-04T08:34:34;5.80;;;1.90;;
8978;SDS011;4524;51.364;5.448;2022-07-04T08:37:03;3.63;;;1.90;;
8978;SDS011;4524;51.364;5.448;2022-07-04T08:39:32;3.40;;;1.80;;
8978;SDS011;4524;51.364;5.448;2022-07-04T08:42:01;2.93;;;1.87;;
8978;SDS011;4524;51.364;5.448;2022-07-04T08:44:33;3.70;;;1.87;;
8978;SDS011;4524;51.364;5.448;2022-07-04T08:47:04;5.03;;;1.63;;
8978;SDS011;4524;51.364;5.448;2022-07-04T08:49:41;3.00;;;1.80;;
8978;SDS011;4524;51.364;5.448;2022-07-04T08:52:13;5.67;;;1.80;;
8978;SDS011;4524;51.364;5.448;2022-07-04T08:54:52;5.80;;;1.80;;
8978;SDS011;4524;51.364;5.448;2022-07-04T08:57:44;8.47;;;1.70;;
8978;SDS011;4524;51.364;5.448;2022-07-04T09:00:27;4.10;;;1.80;;
8978;SDS011;4524;51.364;5.448;2022-07-04T09:02:56;3.90;;;1.60;;
8978;SDS011;4524;51.364;5.448;2022-07-04T09:05:26;8.07;;;1.77;;
8978;SDS011;4524;51.364;5.448;2022-07-04T09:07:54;3.23;;;1.60;;
8978;SDS011;4524;51.364;5.448;2022-07-04T09:10:23;3.63;;;1.63;;
8978;SDS011;4524;51.364;5.448;2022-07-04T09:12:52;2.87;;;1.50;;
8978;SDS011;4524;51.364;5.448;2022-07-04T09:15:36;5.20;;;1.77;;
8978;SDS011;4524;51.364;5.448;2022-07-04T09:18:05;2.83;;;1.43;;
8978;SDS011;4524;51.364;5.448;2022-07-04T09:20:33;4.73;;;1.80;;
8978;SDS011;4524;51.364;5.448;2022-07-04T09:25:45;4.43;;;1.50;;
8978;SDS011;4524;51.364;5.448;2022-07-04T09:28:25;3.93;;;1.83;;
8978;SDS011;4524;51.364;5.448;2022-07-04T09:30:54;5.57;;;1.90;;
8978;SDS011;4524;51.364;5.448;2022-07-04T09:33:22;5.17;;;1.60;;
8978;SDS011;4524;51.364;5.448;2022-07-04T09:36:01;3.80;;;1.40;;
8978;SDS011;4524;51.364;5.448;2022-07-04T09:38:38;4.90;;;1.90;;
8978;SDS011;4524;51.364;5.448;2022-07-04T09:41:07;4.17;;;1.53;;
8978;SDS011;4524;51.364;5.448;2022-07-04T09:43:59;2.37;;;1.60;;
8978;SDS011;4524;51.364;5.448;2022-07-04T09:46:29;3.93;;;1.80;;
8978;SDS011;4524;51.364;5.448;2022-07-04T09:48:57;3.67;;;1.60;;
8978;SDS011;4524;51.364;5.448;2022-07-04T09:51:35;4.73;;;1.80;;
8978;SDS011;4524;51.364;5.448;2022-07-04T09:54:14;3.10;;;1.50;;
8978;SDS011;4524;51.364;5.448;2022-07-04T09:56:53;3.07;;;1.60;;
8978;SDS011;4524;51.364;5.448;2022-07-04T09:59:23;3.83;;;1.50;;
8978;SDS011;4524;51.364;5.448;2022-07-04T10:02:05;2.78;;;1.35;;
8978;SDS011;4524;51.364;5.448;2022-07-04T10:04:43;2.70;;;1.50;;
8978;SDS011;4524;51.364;5.448;2022-07-04T10:09:59;3.40;;;1.50;;
8978;SDS011;4524;51.364;5.448;2022-07-04T10:12:28;2.83;;;1.13;;
8978;SDS011;4524;51.364;5.448;2022-07-04T10:14:56;3.23;;;1.23;;
8978;SDS011;4524;51.364;5.448;2022-07-04T10:17:25;2.53;;;1.30;;
8978;SDS011;4524;51.364;5.448;2022-07-04T10:19:53;2.13;;;1.30;;
8978;SDS011;4524;51.364;5.448;2022-07-04T10:22:22;3.77;;;1.40;;
8978;SDS011;4524;51.364;5.448;2022-07-04T10:24:51;3.67;;;1.40;;
8978;SDS011;4524;51.364;5.448;2022-07-04T10:27:19;2.47;;;1.40;;
8978;SDS011;4524;51.364;5.448;2022-07-04T10:29:48;2.80;;;1.33;;
8978;SDS011;4524;51.364;5.448;2022-07-04T10:32:17;4.10;;;1.37;;
8978;SDS011;4524;51.364;5.448;2022-07-04T10:34:45;3.57;;;1.50;;
8978;SDS011;4524;51.364;5.448;2022-07-04T10:37:13;1.57;;;1.10;;
8978;SDS011;4524;51.364;5.448;2022-07-04T10:39:42;2.20;;;1.20;;
8978;SDS011;4524;51.364;5.448;2022-07-04T10:42:11;5.50;;;1.40;;
8978;SDS011;4524;51.364;5.448;2022-07-04T10:44:51;2.90;;;1.43;;
8978;SDS011;4524;51.364;5.448;2022-07-04T10:47:22;5.67;;;1.60;;
8978;SDS011;4524;51.364;5.448;2022-07-04T10:49:54;2.20;;;1.20;;
8978;SDS011;4524;51.364;5.448;2022-07-04T10:52:22;2.27;;;1.37;;
8978;SDS011;4524;51.364;5.448;2022-07-04T10:54:50;2.40;;;1.33;;
8978;SDS011;4524;51.364;5.448;2022-07-04T10:57:18;4.33;;;1.23;;
8978;SDS011;4524;51.364;5.448;2022-07-04T11:00:03;3.70;;;1.47;;
8978;SDS011;4524;51.364;5.448;2022-07-04T11:02:33;3.17;;;1.63;;
8978;SDS011;4524;51.364;5.448;2022-07-04T11:05:03;3.17;;;1.50;;
8978;SDS011;4524;51.364;5.448;2022-07-04T11:10:23;3.23;;;1.40;;
8978;SDS011;4524;51.364;5.448;2022-07-04T11:13:08;6.07;;;1.50;;
8978;SDS011;4524;51.364;5.448;2022-07-04T11:16:00;2.97;;;1.50;;
8978;SDS011;4524;51.364;5.448;2022-07-04T11:18:37;4.17;;;1.60;;
8978;SDS011;4524;51.364;5.448;2022-07-04T11:21:14;2.67;;;1.43;;
8978;SDS011;4524;51.364;5.448;2022-07-04T11:23:52;3.43;;;1.33;;
8978;SDS011;4524;51.364;5.448;2022-07-04T11:26:22;3.07;;;1.20;;
8978;SDS011;4524;51.364;5.448;2022-07-04T11:28:51;3.37;;;1.40;;
8978;SDS011;4524;51.364;5.448;2022-07-04T11:31:21;2.53;;;1.33;;
8978;SDS011;4524;51.364;5.448;2022-07-04T11:34:02;1.87;;;1.30;;
8978;SDS011;4524;51.364;5.448;2022-07-04T11:36:30;2.67;;;1.20;;
8978;SDS011;4524;51.364;5.448;2022-07-04T11:38:59;3.77;;;1.50;;
8978;SDS011;4524;51.364;5.448;2022-07-04T11:41:28;4.77;;;1.57;;
8978;SDS011;4524;51.364;5.448;2022-07-04T11:44:16;2.83;;;1.27;;
8978;SDS011;4524;51.364;5.448;2022-07-04T11:47:08;5.47;;;1.50;;
8978;SDS011;4524;51.364;5.448;2022-07-04T11:49:41;5.90;;;1.50;;
8978;SDS011;4524;51.364;5.448;2022-07-04T11:52:29;3.90;;;1.40;;
8978;SDS011;4524;51.364;5.448;2022-07-04T11:55:26;4.87;;;1.40;;
8978;SDS011;4524;51.364;5.448;2022-07-04T11:57:54;3.30;;;1.40;;
8978;SDS011;4524;51.364;5.448;2022-07-04T12:00:25;3.27;;;1.60;;
8978;SDS011;4524;51.364;5.448;2022-07-04T12:02:58;2.77;;;1.60;;
8978;SDS011;4524;51.364;5.448;2022-07-04T12:05:27;2.80;;;1.43;;
8978;SDS011;4524;51.364;5.448;2022-07-04T12:07:57;3.03;;;1.43;;
8978;SDS011;4524;51.364;5.448;2022-07-04T12:10:45;2.90;;;1.40;;
8978;SDS011;4524;51.364;5.448;2022-07-04T12:13:14;2.57;;;1.30;;
8978;SDS011;4524;51.364;5.448;2022-07-04T12:15:44;3.83;;;1.37;;
8978;SDS011;4524;51.364;5.448;2022-07-04T12:18:16;3.73;;;1.67;;
8978;SDS011;4524;51.364;5.448;2022-07-04T12:20:45;3.67;;;1.40;;
8978;SDS011;4524;51.364;5.448;2022-07-04T12:23:14;1.90;;;1.17;;
8978;SDS011;4524;51.364;5.448;2022-07-04T12:25:44;4.13;;;1.57;;
8978;SDS011;4524;51.364;5.448;2022-07-04T12:28:14;3.07;;;1.40;;
8978;SDS011;4524;51.364;5.448;2022-07-04T12:30:48;4.70;;;1.40;;
8978;SDS011;4524;51.364;5.448;2022-07-04T12:33:19;2.77;;;1.60;;
8978;SDS011;4524;51.364;5.448;2022-07-04T12:35:48;3.33;;;2.00;;
8978;SDS011;4524;51.364;5.448;2022-07-04T12:38:18;5.67;;;2.23;;
8978;SDS011;4524;51.364;5.448;2022-07-04T12:40:55;4.80;;;2.00;;
8978;SDS011;4524;51.364;5.448;2022-07-04T12:43:25;4.03;;;2.03;;
8978;SDS011;4524;51.364;5.448;2022-07-04T12:45:54;3.57;;;2.27;;
8978;SDS011;4524;51.364;5.448;2022-07-04T12:48:26;4.73;;;2.97;;
8978;SDS011;4524;51.364;5.448;2022-07-04T12:50:55;7.03;;;2.90;;
8978;SDS011;4524;51.364;5.448;2022-07-04T12:53:37;5.20;;;2.73;;
8978;SDS011;4524;51.364;5.448;2022-07-04T12:56:06;3.93;;;2.40;;
8978;SDS011;4524;51.364;5.448;2022-07-04T12:58:34;5.60;;;2.57;;
8978;SDS011;4524;51.364;5.448;2022-07-04T13:01:03;5.07;;;2.40;;
8978;SDS011;4524;51.364;5.448;2022-07-04T13:03:32;4.40;;;2.20;;
8978;SDS011;4524;51.364;5.448;2022-07-04T13:06:00;3.27;;;2.10;;
8978;SDS011;4524;51.364;5.448;2022-07-04T13:08:28;3.67;;;2.20;;
8978;SDS011;4524;51.364;5.448;2022-07-04T13:10:56;4.17;;;2.13;;
8978;SDS011;4524;51.364;5.448;2022-07-04T13:13:37;7.27;;;2.60;;
8978;SDS011;4524;51.364;5.448;2022-07-04T13:16:05;5.07;;;3.43;;
8978;SDS011;4524;51.364;5.448;2022-07-04T13:18:35;6.00;;;3.10;;
8978;SDS011;4524;51.364;5.448;2022-07-04T13:21:03;5.40;;;3.40;;
8978;SDS011;4524;51.364;5.448;2022-07-04T13:23:31;5.30;;;3.77;;
8978;SDS011;4524;51.364;5.448;2022-07-04T13:25:59;6.97;;;3.60;;
8978;SDS011;4524;51.364;5.448;2022-07-04T13:28:27;6.60;;;3.83;;
8978;SDS011;4524;51.364;5.448;2022-07-04T13:30:55;5.37;;;3.23;;
8978;SDS011;4524;51.364;5.448;2022-07-04T13:33:23;7.20;;;3.50;;
8978;SDS011;4524;51.364;5.448;2022-07-04T13:35:52;4.63;;;3.37;;
8978;SDS011;4524;51.364;5.448;2022-07-04T13:38:20;4.83;;;2.60;;
8978;SDS011;4524;51.364;5.448;2022-07-04T13:40:48;4.63;;;2.77;;
8978;SDS011;4524;51.364;5.448;2022-07-04T13:43:16;5.13;;;3.10;;
8978;SDS011;4524;51.364;5.448;2022-07-04T13:45:44;5.00;;;2.90;;
8978;SDS011;4524;51.364;5.448;2022-07-04T13:48:15;3.87;;;2.70;;
8978;SDS011;4524;51.364;5.448;2022-07-04T13:50:43;6.80;;;3.30;;
8978;SDS011;4524;51.364;5.448;2022-07-04T13:53:13;4.20;;;2.80;;
8978;SDS011;4524;51.364;5.448;2022-07-04T13:55:41;5.47;;;3.00;;
8978;SDS011;4524;51.364;5.448;2022-07-04T13:58:14;6.20;;;2.90;;
8978;SDS011;4524;51.364;5.448;2022-07-04T14:00:42;4.67;;;2.50;;
8978;SDS011;4524;51.364;5.448;2022-07-04T14:03:11;4.97;;;2.97;;
8978;SDS011;4524;51.364;5.448;2022-07-04T14:05:40;4.90;;;2.90;;
8978;SDS011;4524;51.364;5.448;2022-07-04T14:08:09;4.23;;;2.80;;
8978;SDS011;4524;51.364;5.448;2022-07-04T14:10:38;6.63;;;3.53;;
8978;SDS011;4524;51.364;5.448;2022-07-04T14:13:06;5.10;;;3.30;;
8978;SDS011;4524;51.364;5.448;2022-07-04T14:15:36;4.97;;;3.37;;
8978;SDS011;4524;51.364;5.448;2022-07-04T14:18:04;4.30;;;3.03;;
8978;SDS011;4524;51.364;5.448;2022-07-04T14:20:37;6.97;;;3.20;;
8978;SDS011;4524;51.364;5.448;2022-07-04T14:23:05;3.70;;;2.73;;
8978;SDS011;4524;51.364;5.448;2022-07-04T14:25:33;4.43;;;2.70;;
8978;SDS011;4524;51.364;5.448;2022-07-04T14:28:02;3.93;;;2.73;;
8978;SDS011;4524;51.364;5.448;2022-07-04T14:30:31;4.70;;;3.10;;
8978;SDS011;4524;51.364;5.448;2022-07-04T14:32:59;5.57;;;3.00;;
8978;SDS011;4524;51.364;5.448;2022-07-04T14:35:26;5.23;;;2.70;;
8978;SDS011;4524;51.364;5.448;2022-07-04T14:37:54;5.00;;;2.83;;
8978;SDS011;4524;51.364;5.448;2022-07-04T14:40:23;4.30;;;2.40;;
8978;SDS011;4524;51.364;5.448;2022-07-04T14:42:51;5.50;;;2.70;;
8978;SDS011;4524;51.364;5.448;2022-07-04T14:45:20;4.27;;;2.60;;
8978;SDS011;4524;51.364;5.448;2022-07-04T14:47:48;5.57;;;2.40;;
8978;SDS011;4524;51.364;5.448;2022-07-04T14:50:16;4.13;;;2.23;;
8978;SDS011;4524;51.364;5.448;2022-07-04T14:52:44;6.30;;;2.80;;
8978;SDS011;4524;51.364;5.448;2022-07-04T14:55:12;3.40;;;2.63;;
8978;SDS011;4524;51.364;5.448;2022-07-04T14:57:40;5.43;;;2.73;;
8978;SDS011;4524;51.364;5.448;2022-07-04T15:00:08;6.33;;;2.93;;
8978;SDS011;4524;51.364;5.448;2022-07-04T15:02:38;4.77;;;2.57;;
8978;SDS011;4524;51.364;5.448;2022-07-04T15:05:06;4.40;;;2.20;;
8978;SDS011;4524;51.364;5.448;2022-07-04T15:07:38;3.97;;;2.50;;
8978;SDS011;4524;51.364;5.448;2022-07-04T15:10:06;7.43;;;3.17;;
8978;SDS011;4524;51.364;5.448;2022-07-04T15:12:34;5.33;;;3.00;;
8978;SDS011;4524;51.364;5.448;2022-07-04T15:15:03;5.10;;;3.60;;
8978;SDS011;4524;51.364;5.448;2022-07-04T15:17:31;4.40;;;2.90;;
8978;SDS011;4524;51.364;5.448;2022-07-04T15:20:00;6.67;;;3.50;;
8978;SDS011;4524;51.364;5.448;2022-07-04T15:22:46;7.33;;;3.20;;
8978;SDS011;4524;51.364;5.448;2022-07-04T15:25:37;4.60;;;3.50;;
8978;SDS011;4524;51.364;5.448;2022-07-04T15:28:05;4.03;;;3.00;;
8978;SDS011;4524;51.364;5.448;2022-07-04T15:30:32;5.87;;;3.40;;
8978;SDS011;4524;51.364;5.448;2022-07-04T15:33:01;4.03;;;3.00;;
8978;SDS011;4524;51.364;5.448;2022-07-04T15:35:30;4.07;;;2.93;;
8978;SDS011;4524;51.364;5.448;2022-07-04T15:37:58;4.00;;;3.03;;
8978;SDS011;4524;51.364;5.448;2022-07-04T15:40:26;4.60;;;3.07;;